createdAt,value
2023-03-02T00:00:20.854Z,87.08
2023-03-02T00:03:14.300Z,86.07
2023-03-02T00:05:47.634Z,87.38
2023-03-02T00:08:20.935Z,87.55
2023-03-02T00:10:54.822Z,87.78
2023-03-02T00:13:26.552Z,88.48
2023-03-02T00:15:58.320Z,88.56
2023-03-02T00:18:30.105Z,88.94
2023-03-02T00:21:02.185Z,89.19
2023-03-02T00:23:33.882Z,89.36
2023-03-02T00:26:05.993Z,89.36
2023-03-02T00:28:37.773Z,89.82
2023-03-02T00:31:09.802Z,89.88
2023-03-02T00:33:42.236Z,90.32
2023-03-02T00:36:20.537Z,90.72
2023-03-02T00:38:53.279Z,90.60
2023-03-02T00:41:23.473Z,90.53
2023-03-02T00:43:55.188Z,91.07
2023-03-02T00:46:28.582Z,90.05
2023-03-02T00:49:00.572Z,89.42
2023-03-02T00:51:32.490Z,89.09
2023-03-02T00:54:04.547Z,89.19
2023-03-02T00:56:36.434Z,89.82
2023-03-02T00:59:26.713Z,90.29
2023-03-02T01:02:06.052Z,90.49
2023-03-02T01:04:41.244Z,90.95
2023-03-02T01:07:14.874Z,90.92
2023-03-02T01:09:49.162Z,91.03
2023-03-02T01:12:20.917Z,91.21
2023-03-02T01:14:52.708Z,91.14
2023-03-02T01:17:25.336Z,89.53
2023-03-02T01:19:57.410Z,89.36
2023-03-02T01:22:29.446Z,89.69
2023-03-02T01:25:01.628Z,90.03
2023-03-02T01:27:33.479Z,89.96
2023-03-02T01:30:06.540Z,90.16
2023-03-02T01:32:38.934Z,90.62
2023-03-02T01:35:12.048Z,90.75
2023-03-02T01:37:42.962Z,90.53
2023-03-02T01:40:16.226Z,90.79
2023-03-02T01:42:58.672Z,91.26
2023-03-02T01:45:51.678Z,91.94
2023-03-02T01:48:31.954Z,92.73
2023-03-02T01:51:06.553Z,92.98
2023-03-02T01:53:46.753Z,93.19
2023-03-02T01:56:23.354Z,93.43
2023-03-02T01:59:01.908Z,93.95
2023-03-02T02:01:37.462Z,94.34
2023-03-02T02:04:10.501Z,94.14
2023-03-02T02:06:48.507Z,93.66
2023-03-02T02:09:21.925Z,94.02
2023-03-02T02:11:53.618Z,92.77
2023-03-02T02:14:25.805Z,92.11
2023-03-02T02:16:57.655Z,91.55
2023-03-02T02:19:41.346Z,90.93
2023-03-02T02:22:16.190Z,91.30
2023-03-02T02:24:51.104Z,92.12
2023-03-02T02:27:29.895Z,92.85
2023-03-02T02:30:04.543Z,93.31
2023-03-02T02:32:40.012Z,92.54
2023-03-02T02:35:17.398Z,91.31
2023-03-02T02:37:53.657Z,90.13
2023-03-02T02:40:47.267Z,89.85
2023-03-02T02:43:22.552Z,90.84
2023-03-02T02:45:57.652Z,91.62
2023-03-02T02:48:32.826Z,92.38
2023-03-02T02:51:08.080Z,92.08
2023-03-02T02:53:49.555Z,92.42
2023-03-02T02:56:21.781Z,93.51
2023-03-02T02:58:57.013Z,94.37
2023-03-02T03:01:29.186Z,95.08
2023-03-02T03:04:04.930Z,95.64
2023-03-02T03:06:42.343Z,95.87
2023-03-02T03:09:15.527Z,95.42
2023-03-02T03:11:53.491Z,95.33
2023-03-02T03:14:30.497Z,94.98
2023-03-02T03:17:02.606Z,95.18
2023-03-02T03:19:35.546Z,95.44
2023-03-02T03:22:07.579Z,96.13
2023-03-02T03:24:41.077Z,98.50
2023-03-02T03:27:16.588Z,99.38
2023-03-02T03:29:49.624Z,99.43
2023-03-02T03:32:23.308Z,99.95
2023-03-02T03:34:57.132Z,100.00
2023-03-02T03:37:34.509Z,100.00
2023-03-02T03:40:09.398Z,100.00
2023-03-02T03:42:41.226Z,100.00
2023-03-02T03:45:13.916Z,100.00
2023-03-02T03:47:46.929Z,100.00
2023-03-02T03:50:18.924Z,100.00
2023-03-02T03:52:51.172Z,100.00
2023-03-02T03:55:29.039Z,100.00
2023-03-02T03:58:01.479Z,100.00
2023-03-02T04:00:34.717Z,100.00
2023-03-02T04:03:09.092Z,100.00
2023-03-02T04:05:42.059Z,100.00
2023-03-02T04:08:14.142Z,100.00
2023-03-02T04:10:45.509Z,100.00
2023-03-02T04:13:17.388Z,100.00
2023-03-02T04:15:49.841Z,100.00
2023-03-02T04:18:21.658Z,100.00
2023-03-02T04:20:53.416Z,100.00
2023-03-02T04:23:25.237Z,100.00
2023-03-02T04:25:57.772Z,100.00
2023-03-02T04:28:28.533Z,100.00
2023-03-02T04:31:00.453Z,100.00
2023-03-02T04:33:32.346Z,100.00
2023-03-02T04:36:04.592Z,100.00
2023-03-02T04:38:36.621Z,100.00
2023-03-02T04:41:08.704Z,100.00
2023-03-02T04:43:40.418Z,100.00
2023-03-02T04:46:15.400Z,100.00
2023-03-02T04:48:47.144Z,100.00
2023-03-02T04:51:25.140Z,100.00
2023-03-02T04:53:59.476Z,100.00
2023-03-02T04:56:33.024Z,100.00
2023-03-02T04:59:05.465Z,100.00
2023-03-02T05:01:37.690Z,100.00
2023-03-02T05:04:08.438Z,100.00
2023-03-02T05:06:40.467Z,100.00
2023-03-02T05:09:12.922Z,100.00
2023-03-02T05:11:44.945Z,100.00
2023-03-02T05:14:16.732Z,100.00
2023-03-02T05:16:48.556Z,100.00
2023-03-02T05:19:20.583Z,100.00
2023-03-02T05:21:52.898Z,100.00
2023-03-02T05:24:24.645Z,100.00
2023-03-02T05:26:56.326Z,100.00
2023-03-02T05:29:28.420Z,100.00
2023-03-02T05:32:00.152Z,100.00
2023-03-02T05:34:31.897Z,100.00
2023-03-02T05:37:03.753Z,100.00
2023-03-02T05:39:35.862Z,100.00
2023-03-02T05:42:07.987Z,100.00
2023-03-02T05:44:39.919Z,100.00
2023-03-02T05:47:11.677Z,100.00
2023-03-02T05:49:43.503Z,100.00
2023-03-02T05:52:15.324Z,100.00
2023-03-02T05:54:47.182Z,100.00
2023-03-02T05:57:19.183Z,100.00
2023-03-02T05:59:51.741Z,100.00
2023-03-02T06:02:23.538Z,100.00
2023-03-02T06:04:55.552Z,100.00
2023-03-02T06:07:27.633Z,100.00
2023-03-02T06:09:59.696Z,100.00
2023-03-02T06:12:34.734Z,100.00
2023-03-02T06:15:08.450Z,100.00
2023-03-02T06:17:40.596Z,100.00
2023-03-02T06:20:14.818Z,100.00
2023-03-02T06:22:48.267Z,100.00
2023-03-02T06:25:22.407Z,100.00
2023-03-02T06:27:54.908Z,100.00
2023-03-02T06:30:28.859Z,100.00
2023-03-02T06:33:04.521Z,100.00
2023-03-02T06:35:37.070Z,100.00
2023-03-02T06:38:09.147Z,100.00
2023-03-02T06:40:43.062Z,100.00
2023-03-02T06:43:15.114Z,100.00
2023-03-02T06:45:46.929Z,100.00
2023-03-02T06:48:18.940Z,100.00
2023-03-02T06:50:50.885Z,100.00
2023-03-02T06:53:23.530Z,100.00
2023-03-02T06:55:55.419Z,100.00
2023-03-02T06:58:27.292Z,100.00
2023-03-02T07:00:59.827Z,100.00
2023-03-02T07:03:30.225Z,100.00
2023-03-02T07:06:02.101Z,100.00
2023-03-02T07:08:34.658Z,100.00
2023-03-02T07:11:10.591Z,100.00
2023-03-02T07:13:42.907Z,100.00
2023-03-02T07:16:16.508Z,100.00
2023-03-02T07:18:48.208Z,100.00
2023-03-02T07:21:19.985Z,100.00
2023-03-02T07:23:51.742Z,100.00
2023-03-02T07:26:23.692Z,100.00
2023-03-02T07:28:55.459Z,100.00
2023-03-02T07:31:27.485Z,100.00
2023-03-02T07:33:59.748Z,100.00
2023-03-02T07:36:31.467Z,100.00
2023-03-02T07:39:05.561Z,100.00
2023-03-02T07:41:37.660Z,100.00
2023-03-02T07:44:09.980Z,100.00
2023-03-02T07:46:41.759Z,100.00
2023-03-02T07:49:13.626Z,100.00
2023-03-02T07:51:45.332Z,100.00
2023-03-02T07:54:17.163Z,100.00
2023-03-02T07:56:48.913Z,100.00
2023-03-02T07:59:20.946Z,100.00
2023-03-02T08:01:53.162Z,100.00
2023-03-02T08:04:25.341Z,100.00
2023-03-02T08:06:57.143Z,100.00
2023-03-02T08:09:28.989Z,100.00
2023-03-02T08:12:00.729Z,100.00
2023-03-02T08:14:33.179Z,100.00
2023-03-02T08:17:07.178Z,100.00
2023-03-02T08:19:39.032Z,100.00
2023-03-02T08:22:10.814Z,100.00
2023-03-02T08:24:43.466Z,100.00
2023-03-02T08:27:17.206Z,100.00
2023-03-02T08:29:48.932Z,100.00
2023-03-02T08:32:21.111Z,100.00
2023-03-02T08:34:52.964Z,100.00
2023-03-02T08:37:24.884Z,100.00
2023-03-02T08:39:58.659Z,100.00
2023-03-02T08:42:31.021Z,100.00
2023-03-02T08:45:03.189Z,100.00
2023-03-02T08:47:34.950Z,100.00
2023-03-02T08:50:09.181Z,100.00
2023-03-02T08:52:40.992Z,100.00
2023-03-02T08:55:13.875Z,100.00
2023-03-02T08:57:45.773Z,100.00
2023-03-02T09:00:19.811Z,100.00
2023-03-02T09:02:52.039Z,100.00
2023-03-02T09:05:23.887Z,100.00
2023-03-02T09:07:55.719Z,100.00
2023-03-02T09:10:27.496Z,100.00
2023-03-02T09:12:59.298Z,100.00
2023-03-02T09:15:32.141Z,100.00
2023-03-02T09:18:04.455Z,100.00
2023-03-02T09:20:36.620Z,100.00
2023-03-02T09:23:08.996Z,100.00
2023-03-02T09:25:40.824Z,100.00
2023-03-02T09:28:12.703Z,99.86
2023-03-02T09:30:52.086Z,99.15
2023-03-02T09:33:24.319Z,99.78
2023-03-02T09:35:56.822Z,99.76
2023-03-02T09:38:29.246Z,98.96
2023-03-02T09:41:35.828Z,99.21
2023-03-02T09:44:28.061Z,99.95
2023-03-02T09:47:05.098Z,99.95
2023-03-02T09:49:47.974Z,99.41
2023-03-02T09:52:29.755Z,99.13
2023-03-02T09:55:12.495Z,98.93
2023-03-02T09:57:46.276Z,98.25
2023-03-02T10:00:24.112Z,98.32
2023-03-02T10:03:11.363Z,98.14
2023-03-02T10:05:49.500Z,97.54
2023-03-02T10:08:25.105Z,96.96
2023-03-02T10:11:11.882Z,96.19
2023-03-02T10:13:49.254Z,96.63
2023-03-02T10:16:32.128Z,96.36
2023-03-02T10:19:12.618Z,96.42
2023-03-02T10:21:48.097Z,95.95
2023-03-02T10:24:30.801Z,95.41
2023-03-02T10:27:12.620Z,96.05
2023-03-02T10:29:52.091Z,96.58
2023-03-02T10:32:26.560Z,95.71
2023-03-02T10:35:01.816Z,94.02
2023-03-02T10:37:35.633Z,94.22
2023-03-02T10:40:13.280Z,93.79
2023-03-02T10:42:45.166Z,93.49
2023-03-02T10:45:28.765Z,93.35
2023-03-02T10:48:06.007Z,92.46
2023-03-02T10:50:40.604Z,92.36
2023-03-02T10:53:19.449Z,92.33
2023-03-02T10:55:54.110Z,93.15
2023-03-02T10:58:31.686Z,93.61
2023-03-02T11:01:07.151Z,93.71
2023-03-02T11:03:39.410Z,93.85
2023-03-02T11:06:22.788Z,94.90
2023-03-02T11:09:04.079Z,94.72
2023-03-02T11:11:38.294Z,93.89
2023-03-02T11:14:18.284Z,93.81
2023-03-02T11:16:52.225Z,93.52
2023-03-02T11:19:33.246Z,92.55
2023-03-02T11:22:20.149Z,92.36
2023-03-02T11:24:57.789Z,93.33
2023-03-02T11:27:34.994Z,93.78
2023-03-02T11:30:15.885Z,94.16
2023-03-02T11:32:57.050Z,94.51
2023-03-02T11:35:34.521Z,94.53
2023-03-02T11:38:19.061Z,93.89
2023-03-02T11:40:56.756Z,93.17
2023-03-02T11:43:29.665Z,92.15
2023-03-02T11:46:13.878Z,91.47
2023-03-02T11:48:54.508Z,90.91
2023-03-02T11:51:39.091Z,90.65
2023-03-02T11:54:44.960Z,90.59
2023-03-02T11:57:28.981Z,91.74
2023-03-02T12:00:05.534Z,91.85
2023-03-02T12:02:44.370Z,91.06
2023-03-02T12:05:29.934Z,91.22
2023-03-02T12:08:04.256Z,90.92
2023-03-02T12:10:40.493Z,90.94
2023-03-02T12:13:23.346Z,91.91
2023-03-02T12:15:56.442Z,92.97
2023-03-02T12:18:45.810Z,93.53
2023-03-02T12:21:20.655Z,94.00
2023-03-02T12:24:03.924Z,94.09
2023-03-02T12:26:40.158Z,94.13
2023-03-02T12:29:27.064Z,94.25
2023-03-02T12:31:59.772Z,94.25
2023-03-02T12:34:36.151Z,94.08
2023-03-02T12:37:16.102Z,93.61
2023-03-02T12:40:26.127Z,92.59
2023-03-02T12:43:20.528Z,92.01
2023-03-02T12:46:24.230Z,91.54
2023-03-02T12:49:04.948Z,91.80
2023-03-02T12:51:51.449Z,91.21
2023-03-02T12:54:25.316Z,91.45
2023-03-02T12:57:17.544Z,92.50
2023-03-02T13:00:00.265Z,92.33
2023-03-02T13:02:37.266Z,91.43
2023-03-02T13:05:18.627Z,92.10
2023-03-02T13:07:59.609Z,92.05
2023-03-02T13:10:37.129Z,91.52
2023-03-02T13:13:19.440Z,91.13
2023-03-02T13:15:55.397Z,90.19
2023-03-02T13:18:34.632Z,89.81
2023-03-02T13:21:12.895Z,89.79
2023-03-02T13:23:51.369Z,90.13
2023-03-02T13:26:32.649Z,90.45
2023-03-02T13:29:08.588Z,90.44
2023-03-02T13:31:42.321Z,90.68
2023-03-02T13:34:24.468Z,91.74
2023-03-02T13:36:58.007Z,91.10
2023-03-02T13:39:33.182Z,91.16
2023-03-02T13:42:09.210Z,91.97
2023-03-02T13:44:41.792Z,91.99
2023-03-02T13:47:25.674Z,92.21
2023-03-02T13:50:10.220Z,91.46
2023-03-02T13:52:42.264Z,90.96
2023-03-02T13:55:18.373Z,91.32
2023-03-02T13:57:52.241Z,90.94
2023-03-02T14:00:29.471Z,90.93
2023-03-02T14:03:02.174Z,91.23
2023-03-02T14:05:34.281Z,91.23
2023-03-02T14:08:07.176Z,91.68
2023-03-02T14:10:41.166Z,91.21
2023-03-02T14:13:17.657Z,90.91
2023-03-02T14:15:52.278Z,90.64
2023-03-02T14:18:38.682Z,90.42
2023-03-02T14:21:15.910Z,90.32
2023-03-02T14:23:48.439Z,90.24
2023-03-02T14:26:33.481Z,90.98
2023-03-02T14:29:08.920Z,90.86
2023-03-02T14:32:33.857Z,91.41
2023-03-02T14:35:08.362Z,91.87
2023-03-02T14:37:42.630Z,92.17
2023-03-02T14:40:22.945Z,91.43
2023-03-02T14:42:57.342Z,91.16
2023-03-02T14:45:30.844Z,90.82
2023-03-02T14:48:02.763Z,90.50
2023-03-02T14:50:38.868Z,91.21
2023-03-02T14:53:15.430Z,90.94
2023-03-02T14:55:47.879Z,90.78
2023-03-02T14:58:21.324Z,91.46
2023-03-02T15:00:53.316Z,92.39
2023-03-02T15:03:26.860Z,92.36
2023-03-02T15:06:01.615Z,91.13
2023-03-02T15:08:34.013Z,90.15
2023-03-02T15:11:06.407Z,90.36
2023-03-02T15:13:38.195Z,90.42
2023-03-02T15:16:12.793Z,90.42
2023-03-02T15:18:44.903Z,90.70
2023-03-02T15:21:19.638Z,90.44
2023-03-02T15:23:51.845Z,91.53
2023-03-02T15:26:23.824Z,91.77
2023-03-02T15:28:56.120Z,91.84
2023-03-02T15:31:28.658Z,91.70
2023-03-02T15:34:00.934Z,91.38
2023-03-02T15:36:34.086Z,91.40
2023-03-02T15:39:07.792Z,91.56
2023-03-02T15:41:39.778Z,91.81
2023-03-02T15:44:22.652Z,92.22
2023-03-02T15:46:58.194Z,92.24
2023-03-02T15:49:33.045Z,92.42
2023-03-02T15:52:07.934Z,92.31
2023-03-02T15:54:45.284Z,92.53
2023-03-02T15:57:20.145Z,92.38
2023-03-02T15:59:55.323Z,92.66
2023-03-02T16:02:50.394Z,92.80
2023-03-02T16:05:26.940Z,92.70
2023-03-02T16:08:00.156Z,92.61
2023-03-02T16:10:37.850Z,92.25
2023-03-02T16:13:11.241Z,92.36
2023-03-02T16:15:46.027Z,92.52
2023-03-02T16:18:17.764Z,92.95
2023-03-02T16:20:50.565Z,92.68
2023-03-02T16:23:26.735Z,93.08
2023-03-02T16:26:10.863Z,93.73
2023-03-02T16:28:45.755Z,94.29
2023-03-02T16:31:19.750Z,94.11
2023-03-02T16:33:54.080Z,93.48
2023-03-02T16:36:27.158Z,93.43
2023-03-02T16:38:58.943Z,93.36
2023-03-02T16:41:30.757Z,93.38
2023-03-02T16:44:09.223Z,93.08
2023-03-02T16:46:43.820Z,92.75
2023-03-02T16:49:17.310Z,91.75
2023-03-02T16:51:49.586Z,91.95
2023-03-02T16:54:21.878Z,91.70
2023-03-02T16:56:58.068Z,91.03
2023-03-02T16:59:30.737Z,90.74
2023-03-02T17:02:02.599Z,90.30
2023-03-02T17:04:34.930Z,90.51
2023-03-02T17:07:08.469Z,90.38
2023-03-02T17:09:42.239Z,90.84
2023-03-02T17:12:14.339Z,90.43
2023-03-02T17:14:48.867Z,90.13
2023-03-02T17:17:20.766Z,90.07
2023-03-02T17:19:52.780Z,89.71
2023-03-02T17:22:24.815Z,89.80
2023-03-02T17:24:56.676Z,90.08
2023-03-02T17:27:29.094Z,90.18
2023-03-02T17:30:01.063Z,89.83
2023-03-02T17:32:33.534Z,90.21
2023-03-02T17:35:06.779Z,90.43
2023-03-02T17:37:39.129Z,89.93
2023-03-02T17:40:15.622Z,89.82
2023-03-02T17:42:47.867Z,89.90
2023-03-02T17:45:26.041Z,89.92
2023-03-02T17:47:59.456Z,89.77
2023-03-02T17:50:32.513Z,89.61
2023-03-02T17:53:04.599Z,89.41
2023-03-02T17:55:36.802Z,89.49
2023-03-02T17:58:09.079Z,89.71
2023-03-02T18:00:41.844Z,89.90
2023-03-02T18:03:12.350Z,90.33
2023-03-02T18:05:44.786Z,90.60
2023-03-02T18:08:16.955Z,90.90
2023-03-02T18:10:49.116Z,91.19
2023-03-02T18:13:21.214Z,91.99
2023-03-02T18:15:53.598Z,91.75
2023-03-02T18:18:25.636Z,91.83
2023-03-02T18:20:57.824Z,91.62
2023-03-02T18:23:30.405Z,91.43
2023-03-02T18:26:02.200Z,91.56
2023-03-02T18:28:34.422Z,90.85
2023-03-02T18:31:06.935Z,90.19
2023-03-02T18:33:38.078Z,90.17
2023-03-02T18:36:11.482Z,90.36
2023-03-02T18:38:43.870Z,90.63
2023-03-02T18:41:17.279Z,91.29
2023-03-02T18:43:50.166Z,91.88
2023-03-02T18:46:24.842Z,90.95
2023-03-02T18:48:58.058Z,89.95
2023-03-02T18:51:30.182Z,89.50
2023-03-02T18:54:02.038Z,89.81
2023-03-02T18:56:34.375Z,90.73
2023-03-02T18:59:08.692Z,91.03
2023-03-02T19:01:40.600Z,91.51
2023-03-02T19:04:13.284Z,90.52
2023-03-02T19:06:43.930Z,89.59
2023-03-02T19:09:16.400Z,89.20
2023-03-02T19:11:48.225Z,89.75
2023-03-02T19:14:20.465Z,90.42
2023-03-02T19:16:52.826Z,91.03
2023-03-02T19:19:24.693Z,91.35
2023-03-02T19:21:57.738Z,91.65
2023-03-02T19:24:29.996Z,91.84
2023-03-02T19:27:02.477Z,91.81
2023-03-02T19:29:34.396Z,92.19
2023-03-02T19:32:07.695Z,92.54
2023-03-02T19:34:40.210Z,92.30
2023-03-02T19:37:12.416Z,92.63
2023-03-02T19:39:45.818Z,91.32
2023-03-02T19:42:18.411Z,90.87
2023-03-02T19:44:49.314Z,90.41
2023-03-02T19:47:21.284Z,91.30
2023-03-02T19:49:53.075Z,91.95
2023-03-02T19:52:26.015Z,91.42
2023-03-02T19:54:57.897Z,91.10
2023-03-02T19:57:29.789Z,90.95
2023-03-02T20:00:02.096Z,91.16
2023-03-02T20:02:39.580Z,91.37
2023-03-02T20:05:13.415Z,91.84
2023-03-02T20:07:46.154Z,92.10
2023-03-02T20:10:27.295Z,91.77
2023-03-02T20:13:00.706Z,91.46
2023-03-02T20:15:38.125Z,92.27
2023-03-02T20:18:17.145Z,92.67
2023-03-02T20:20:50.048Z,93.07
2023-03-02T20:23:22.655Z,93.04
2023-03-02T20:25:54.987Z,93.11
2023-03-02T20:28:27.267Z,93.34
2023-03-02T20:31:01.669Z,93.59
2023-03-02T20:33:39.473Z,93.52
2023-03-02T20:36:13.019Z,93.22
2023-03-02T20:38:49.371Z,93.33
2023-03-02T20:41:21.542Z,93.60
2023-03-02T20:43:53.663Z,94.13
2023-03-02T20:46:29.102Z,94.11
2023-03-02T20:49:02.490Z,93.74
2023-03-02T20:51:34.732Z,93.28
2023-03-02T20:54:06.765Z,93.74
2023-03-02T20:56:38.641Z,93.79
2023-03-02T20:59:10.478Z,93.77
2023-03-02T21:01:43.508Z,94.09
2023-03-02T21:04:15.675Z,94.82
2023-03-02T21:06:48.556Z,94.35
2023-03-02T21:09:21.293Z,94.15
2023-03-02T21:11:53.371Z,95.07
2023-03-02T21:14:26.163Z,95.64
2023-03-02T21:16:56.626Z,95.24
2023-03-02T21:19:29.594Z,95.29
2023-03-02T21:22:01.558Z,95.17
2023-03-02T21:24:33.536Z,94.73
2023-03-02T21:27:07.245Z,94.94
2023-03-02T21:29:39.211Z,95.04
2023-03-02T21:32:11.130Z,95.53
2023-03-02T21:34:44.590Z,95.59
2023-03-02T21:37:16.853Z,96.14
2023-03-02T21:39:48.755Z,96.05
2023-03-02T21:42:24.575Z,95.94
2023-03-02T21:44:56.633Z,95.76
2023-03-02T21:47:29.675Z,95.53
2023-03-02T21:50:01.884Z,95.26
2023-03-02T21:52:34.106Z,95.16
2023-03-02T21:55:06.573Z,95.18
2023-03-02T21:57:38.687Z,95.12
2023-03-02T22:00:19.807Z,95.43
2023-03-02T22:02:53.500Z,95.36
2023-03-02T22:05:26.100Z,95.91
2023-03-02T22:07:58.453Z,95.87
2023-03-02T22:10:35.089Z,95.37
2023-03-02T22:13:18.576Z,95.55
2023-03-02T22:15:52.088Z,95.80
2023-03-02T22:18:26.999Z,96.40
2023-03-02T22:20:58.826Z,96.80
2023-03-02T22:23:30.639Z,97.38
2023-03-02T22:26:15.664Z,97.68
2023-03-02T22:28:47.460Z,97.49
2023-03-02T22:31:23.195Z,97.56
2023-03-02T22:33:55.400Z,97.53
2023-03-02T22:36:27.371Z,97.35
2023-03-02T22:39:07.265Z,98.18
2023-03-02T22:41:39.302Z,98.33
2023-03-02T22:44:15.258Z,98.19
2023-03-02T22:46:47.249Z,98.25
2023-03-02T22:49:19.815Z,98.56
2023-03-02T22:51:52.017Z,97.90
2023-03-02T22:54:32.054Z,97.87
2023-03-02T22:57:07.062Z,97.77
2023-03-02T22:59:39.916Z,97.39
2023-03-02T23:02:18.594Z,97.39
2023-03-02T23:04:51.185Z,98.76
2023-03-02T23:07:24.063Z,98.25
2023-03-02T23:09:54.292Z,98.04
2023-03-02T23:12:28.048Z,98.26
2023-03-02T23:15:01.135Z,98.68
2023-03-02T23:17:36.083Z,99.20
2023-03-02T23:20:11.653Z,99.86
2023-03-02T23:22:44.407Z,100.00
2023-03-02T23:25:16.652Z,100.00
2023-03-02T23:27:48.622Z,100.00
2023-03-02T23:30:22.418Z,100.00
2023-03-02T23:32:54.485Z,100.00
2023-03-02T23:35:27.060Z,99.95
2023-03-02T23:37:58.058Z,100.00
2023-03-02T23:40:30.221Z,100.00
2023-03-02T23:43:02.479Z,100.00
2023-03-02T23:45:34.789Z,100.00
2023-03-02T23:48:07.321Z,100.00
2023-03-02T23:50:37.692Z,100.00
2023-03-02T23:53:09.775Z,100.00
2023-03-02T23:55:46.108Z,100.00
2023-03-02T23:58:18.357Z,100.00
